DA16 weather

Tindouf East Airport
Tindouf Province, Algeria

Public forecast

Using degrees Celsius for public forecast. Weather courtesy of forecast.io.

Closest aviation weather report (METAR) to Tindouf East Airport

Closest report is Tindouf Airport, 36.1 nm (66.9 km) W. Retrieved 2019/11/13 21:00 UTC (17 minutes ago):

DAOF 132100Z 07003KT CAVOK 23/M00 Q1015

Closest aviation forecast (TAF) to Tindouf East Airport

Forecast is more than 12 hours old.

Closest forecast is Tindouf Airport, 36.1 nm (66.9 km) W. Retrieved 2017/11/09 18:03 UTC (2 years ago):

TAF DAOF 091700Z 0918/1009 32010KT 9999 SCT040 BKN100 PROB30 TEMPO 0918/0921 FEW033CB